sensor_id;sensor_type;location;lat;lon;timestamp;pressure;altitude;pressure_sealevel;temperature;humidity
40982;BME280;26708;50.304;19.028;2023-03-23T00:00:28;97859.63;;;13.13;50.81
40982;BME280;26708;50.304;19.028;2023-03-23T00:02:34;97867.34;;;13.19;50.89
40982;BME280;26708;50.304;19.028;2023-03-23T00:04:39;97885.59;;;13.25;50.89
40982;BME280;26708;50.304;19.028;2023-03-23T00:06:46;97886.47;;;13.25;50.91
40982;BME280;26708;50.304;19.028;2023-03-23T00:08:55;97863.13;;;13.12;50.95
40982;BME280;26708;50.304;19.028;2023-03-23T00:11:00;97888.34;;;13.20;51.04
40982;BME280;26708;50.304;19.028;2023-03-23T00:13:04;97879.66;;;13.18;51.09
40982;BME280;26708;50.304;19.028;2023-03-23T00:15:10;97880.56;;;13.16;51.16
40982;BME280;26708;50.304;19.028;2023-03-23T00:17:17;97874.44;;;13.15;51.37
40982;BME280;26708;50.304;19.028;2023-03-23T00:19:24;97871.16;;;13.06;51.22
40982;BME280;26708;50.304;19.028;2023-03-23T00:21:31;97888.59;;;13.10;51.52
40982;BME280;26708;50.304;19.028;2023-03-23T00:23:40;97879.03;;;13.06;51.57
40982;BME280;26708;50.304;19.028;2023-03-23T00:25:47;97834.09;;;12.81;51.52
40982;BME280;26708;50.304;19.028;2023-03-23T00:27:54;97862.63;;;12.96;51.70
40982;BME280;26708;50.304;19.028;2023-03-23T00:29:59;97867.91;;;12.95;51.73
40982;BME280;26708;50.304;19.028;2023-03-23T00:32:05;97874.84;;;12.97;51.79
40982;BME280;26708;50.304;19.028;2023-03-23T00:34:15;97794.69;;;12.45;51.81
40982;BME280;26708;50.304;19.028;2023-03-23T00:36:29;97874.13;;;12.91;51.94
40982;BME280;26708;50.304;19.028;2023-03-23T00:38:50;97876.78;;;12.89;52.11
40982;BME280;26708;50.304;19.028;2023-03-23T00:40:55;97857.81;;;12.78;52.09
40982;BME280;26708;50.304;19.028;2023-03-23T00:43:03;97859.47;;;12.81;51.96
40982;BME280;26708;50.304;19.028;2023-03-23T00:45:09;97854.38;;;12.75;51.98
40982;BME280;26708;50.304;19.028;2023-03-23T00:47:15;97844.91;;;12.68;51.97
40982;BME280;26708;50.304;19.028;2023-03-23T00:49:22;97880.31;;;12.88;51.96
40982;BME280;26708;50.304;19.028;2023-03-23T00:51:28;97876.81;;;12.88;51.86
40982;BME280;26708;50.304;19.028;2023-03-23T00:53:34;97870.72;;;12.87;51.88
40982;BME280;26708;50.304;19.028;2023-03-23T00:55:43;97849.91;;;12.78;51.95
40982;BME280;26708;50.304;19.028;2023-03-23T00:57:54;97862.94;;;12.83;52.04
40982;BME280;26708;50.304;19.028;2023-03-23T01:00:27;97859.53;;;12.79;51.94
40982;BME280;26708;50.304;19.028;2023-03-23T01:02:32;97818.09;;;12.54;52.01
40982;BME280;26708;50.304;19.028;2023-03-23T01:04:39;97840.59;;;12.64;52.23
40982;BME280;26708;50.304;19.028;2023-03-23T01:06:49;97831.13;;;12.57;52.36
40982;BME280;26708;50.304;19.028;2023-03-23T01:08:55;97845.16;;;12.56;52.42
40982;BME280;26708;50.304;19.028;2023-03-23T01:11:06;97849.50;;;12.57;52.57
40982;BME280;26708;50.304;19.028;2023-03-23T01:13:12;97847.06;;;12.51;52.92
40982;BME280;26708;50.304;19.028;2023-03-23T01:15:18;97843.66;;;12.46;52.95
40982;BME280;26708;50.304;19.028;2023-03-23T01:17:24;97843.75;;;12.41;53.12
40982;BME280;26708;50.304;19.028;2023-03-23T01:19:29;97841.16;;;12.38;53.16
40982;BME280;26708;50.304;19.028;2023-03-23T01:21:34;97835.31;;;12.27;53.38
40982;BME280;26708;50.304;19.028;2023-03-23T01:23:40;97843.09;;;12.30;53.56
40982;BME280;26708;50.304;19.028;2023-03-23T01:25:45;97825.13;;;12.12;53.56
40982;BME280;26708;50.304;19.028;2023-03-23T01:27:53;97849.34;;;12.25;53.73
40982;BME280;26708;50.304;19.028;2023-03-23T01:29:57;97841.53;;;12.22;53.69
40982;BME280;26708;50.304;19.028;2023-03-23T01:32:03;97797.53;;;11.93;53.76
40982;BME280;26708;50.304;19.028;2023-03-23T01:34:07;97845.97;;;12.20;53.80
40982;BME280;26708;50.304;19.028;2023-03-23T01:36:15;97788.81;;;11.91;53.75
40982;BME280;26708;50.304;19.028;2023-03-23T01:38:24;97806.22;;;11.95;53.83
40982;BME280;26708;50.304;19.028;2023-03-23T01:40:28;97776.88;;;11.77;53.81
40982;BME280;26708;50.304;19.028;2023-03-23T01:42:35;97821.78;;;12.06;53.87
40982;BME280;26708;50.304;19.028;2023-03-23T01:47:36;97844.22;;;12.19;53.87
40982;BME280;26708;50.304;19.028;2023-03-23T01:49:45;97782.84;;;11.83;54.04
40982;BME280;26708;50.304;19.028;2023-03-23T01:51:57;97840.78;;;12.15;53.97
40982;BME280;26708;50.304;19.028;2023-03-23T01:54:09;97825.28;;;12.05;53.94
40982;BME280;26708;50.304;19.028;2023-03-23T01:56:26;97836.50;;;12.13;54.05
40982;BME280;26708;50.304;19.028;2023-03-23T01:58:40;97806.25;;;11.94;54.15
40982;BME280;26708;50.304;19.028;2023-03-23T02:00:49;97809.66;;;11.99;54.26
40982;BME280;26708;50.304;19.028;2023-03-23T02:02:55;97825.16;;;12.11;54.22
40982;BME280;26708;50.304;19.028;2023-03-23T02:05:08;97824.31;;;12.10;54.14
40982;BME280;26708;50.304;19.028;2023-03-23T02:07:20;97822.63;;;12.06;54.28
40982;BME280;26708;50.304;19.028;2023-03-23T02:09:27;97790.63;;;11.88;54.41
40982;BME280;26708;50.304;19.028;2023-03-23T02:11:33;97809.66;;;11.97;54.31
40982;BME280;26708;50.304;19.028;2023-03-23T02:13:38;97812.19;;;12.05;54.39
40982;BME280;26708;50.304;19.028;2023-03-23T02:15:57;97785.44;;;11.87;54.38
40982;BME280;26708;50.304;19.028;2023-03-23T02:18:20;97823.53;;;12.05;54.28
40982;BME280;26708;50.304;19.028;2023-03-23T02:21:04;97820.09;;;12.02;54.41
40982;BME280;26708;50.304;19.028;2023-03-23T02:23:53;97817.44;;;12.03;54.38
40982;BME280;26708;50.304;19.028;2023-03-23T02:26:32;97821.84;;;12.00;54.40
40982;BME280;26708;50.304;19.028;2023-03-23T02:29:03;97809.66;;;11.97;54.51
40982;BME280;26708;50.304;19.028;2023-03-23T02:31:38;97814.00;;;11.98;54.56
40982;BME280;26708;50.304;19.028;2023-03-23T02:33:58;97821.06;;;11.96;54.61
40982;BME280;26708;50.304;19.028;2023-03-23T02:36:13;97810.59;;;11.95;54.59
40982;BME280;26708;50.304;19.028;2023-03-23T02:38:31;97790.69;;;11.85;54.59
40982;BME280;26708;50.304;19.028;2023-03-23T02:40:43;97807.13;;;11.93;54.62
40982;BME280;26708;50.304;19.028;2023-03-23T02:42:55;97804.59;;;11.90;54.77
40982;BME280;26708;50.304;19.028;2023-03-23T02:45:09;97795.06;;;11.84;54.74
40982;BME280;26708;50.304;19.028;2023-03-23T02:47:20;97794.22;;;11.84;54.79
40982;BME280;26708;50.304;19.028;2023-03-23T02:49:36;97795.22;;;11.77;54.99
40982;BME280;26708;50.304;19.028;2023-03-23T02:51:46;97803.91;;;11.81;55.04
40982;BME280;26708;50.304;19.028;2023-03-23T02:53:55;97795.22;;;11.79;55.09
40982;BME280;26708;50.304;19.028;2023-03-23T02:56:04;97799.56;;;11.78;54.99
40982;BME280;26708;50.304;19.028;2023-03-23T02:58:12;97800.41;;;11.80;54.99
40982;BME280;26708;50.304;19.028;2023-03-23T03:00:20;97788.28;;;11.75;54.97
40982;BME280;26708;50.304;19.028;2023-03-23T03:02:29;97799.56;;;11.80;55.08
40982;BME280;26708;50.304;19.028;2023-03-23T03:04:42;97797.84;;;11.77;55.02
40982;BME280;26708;50.304;19.028;2023-03-23T03:07:11;97782.31;;;11.68;55.05
40982;BME280;26708;50.304;19.028;2023-03-23T03:09:38;97788.34;;;11.73;55.26
40982;BME280;26708;50.304;19.028;2023-03-23T03:11:54;97753.78;;;11.52;55.22
40982;BME280;26708;50.304;19.028;2023-03-23T03:14:13;97787.44;;;11.74;55.18
40982;BME280;26708;50.304;19.028;2023-03-23T03:16:30;97738.19;;;11.46;55.15
40982;BME280;26708;50.304;19.028;2023-03-23T03:18:46;97781.44;;;11.68;55.33
40982;BME280;26708;50.304;19.028;2023-03-23T03:21:06;97778.88;;;11.66;55.43
40982;BME280;26708;50.304;19.028;2023-03-23T03:23:17;97779.72;;;11.67;55.31
40982;BME280;26708;50.304;19.028;2023-03-23T03:25:26;97767.59;;;11.61;55.34
40982;BME280;26708;50.304;19.028;2023-03-23T03:27:33;97767.53;;;11.64;55.26
40982;BME280;26708;50.304;19.028;2023-03-23T03:29:49;97766.72;;;11.61;55.34
40982;BME280;26708;50.304;19.028;2023-03-23T03:32:00;97736.56;;;11.40;55.45
40982;BME280;26708;50.304;19.028;2023-03-23T03:34:10;97783.22;;;11.66;55.36
40982;BME280;26708;50.304;19.028;2023-03-23T03:36:27;97761.63;;;11.53;55.43
40982;BME280;26708;50.304;19.028;2023-03-23T03:38:43;97774.59;;;11.61;55.33
40982;BME280;26708;50.304;19.028;2023-03-23T03:40:51;97777.09;;;11.67;55.32
40982;BME280;26708;50.304;19.028;2023-03-23T03:42:58;97774.44;;;11.68;55.28
40982;BME280;26708;50.304;19.028;2023-03-23T03:45:04;97773.63;;;11.66;55.31
40982;BME280;26708;50.304;19.028;2023-03-23T03:47:10;97786.69;;;11.68;55.23
40982;BME280;26708;50.304;19.028;2023-03-23T03:49:15;97784.09;;;11.66;55.25
40982;BME280;26708;50.304;19.028;2023-03-23T03:51:23;97754.59;;;11.57;55.25
40982;BME280;26708;50.304;19.028;2023-03-23T03:53:31;97783.97;;;11.72;55.09
40982;BME280;26708;50.304;19.028;2023-03-23T03:55:35;97769.34;;;11.61;55.18
40982;BME280;26708;50.304;19.028;2023-03-23T03:57:45;97786.63;;;11.71;54.93
40982;BME280;26708;50.304;19.028;2023-03-23T04:00:19;97786.59;;;11.72;54.80
40982;BME280;26708;50.304;19.028;2023-03-23T04:02:24;97796.94;;;11.80;54.77
40982;BME280;26708;50.304;19.028;2023-03-23T04:04:30;97779.66;;;11.70;54.76
40982;BME280;26708;50.304;19.028;2023-03-23T04:06:39;97785.72;;;11.73;54.85
40982;BME280;26708;50.304;19.028;2023-03-23T04:08:44;97772.72;;;11.67;55.00
40982;BME280;26708;50.304;19.028;2023-03-23T04:10:48;97783.94;;;11.74;54.89
40982;BME280;26708;50.304;19.028;2023-03-23T04:12:56;97788.34;;;11.72;54.87
40982;BME280;26708;50.304;19.028;2023-03-23T04:15:19;97794.41;;;11.75;54.83
40982;BME280;26708;50.304;19.028;2023-03-23T04:17:25;97774.50;;;11.65;54.77
40982;BME280;26708;50.304;19.028;2023-03-23T04:19:31;97780.50;;;11.70;54.68
40982;BME280;26708;50.304;19.028;2023-03-23T04:21:39;97786.53;;;11.75;54.61
40982;BME280;26708;50.304;19.028;2023-03-23T04:23:44;97752.84;;;11.56;54.55
40982;BME280;26708;50.304;19.028;2023-03-23T04:25:51;97734.69;;;11.47;54.64
40982;BME280;26708;50.304;19.028;2023-03-23T04:28:00;97776.88;;;11.77;54.52
40982;BME280;26708;50.304;19.028;2023-03-23T04:30:13;97759.56;;;11.69;54.29
40982;BME280;26708;50.304;19.028;2023-03-23T04:32:25;97778.59;;;11.78;54.22
40982;BME280;26708;50.304;19.028;2023-03-23T04:34:31;97779.50;;;11.77;54.22
40982;BME280;26708;50.304;19.028;2023-03-23T04:36:38;97778.63;;;11.77;54.16
40982;BME280;26708;50.304;19.028;2023-03-23T04:38:50;97785.56;;;11.79;54.07
40982;BME280;26708;50.304;19.028;2023-03-23T04:40:57;97769.91;;;11.78;54.05
40982;BME280;26708;50.304;19.028;2023-03-23T04:43:22;97699.13;;;11.35;53.89
40982;BME280;26708;50.304;19.028;2023-03-23T04:45:53;97775.16;;;11.76;53.91
40982;BME280;26708;50.304;19.028;2023-03-23T04:48:02;97771.66;;;11.76;53.92
40982;BME280;26708;50.304;19.028;2023-03-23T04:50:16;97749.31;;;11.58;53.79
40982;BME280;26708;50.304;19.028;2023-03-23T04:52:24;97776.88;;;11.77;53.82
40982;BME280;26708;50.304;19.028;2023-03-23T04:54:31;97789.06;;;11.81;53.73
40982;BME280;26708;50.304;19.028;2023-03-23T04:56:39;97779.41;;;11.82;53.56
40982;BME280;26708;50.304;19.028;2023-03-23T04:58:49;97783.75;;;11.82;53.55
40982;BME280;26708;50.304;19.028;2023-03-23T05:01:01;97725.88;;;11.49;53.53
40982;BME280;26708;50.304;19.028;2023-03-23T05:03:11;97778.50;;;11.84;53.47
40982;BME280;26708;50.304;19.028;2023-03-23T05:05:20;97774.16;;;11.82;53.40
40982;BME280;26708;50.304;19.028;2023-03-23T05:07:30;97748.34;;;11.64;53.36
40982;BME280;26708;50.304;19.028;2023-03-23T05:09:34;97790.63;;;11.88;53.24
40982;BME280;26708;50.304;19.028;2023-03-23T05:11:40;97777.47;;;11.91;53.25
40982;BME280;26708;50.304;19.028;2023-03-23T05:13:45;97783.53;;;11.94;53.10
40982;BME280;26708;50.304;19.028;2023-03-23T05:15:50;97767.88;;;11.90;53.01
40982;BME280;26708;50.304;19.028;2023-03-23T05:17:55;97776.41;;;11.99;53.11
40982;BME280;26708;50.304;19.028;2023-03-23T05:20:01;97771.22;;;11.98;52.88
40982;BME280;26708;50.304;19.028;2023-03-23T05:22:17;97771.22;;;11.96;52.82
40982;BME280;26708;50.304;19.028;2023-03-23T05:24:28;97776.38;;;12.02;52.78
40982;BME280;26708;50.304;19.028;2023-03-23T05:26:38;97786.81;;;12.05;52.61
40982;BME280;26708;50.304;19.028;2023-03-23T05:28:51;97780.63;;;12.09;52.78
40982;BME280;26708;50.304;19.028;2023-03-23T05:31:09;97739.03;;;11.90;52.44
40982;BME280;26708;50.304;19.028;2023-03-23T05:33:14;97785.66;;;12.18;52.41
40982;BME280;26708;50.304;19.028;2023-03-23T05:35:29;97773.47;;;12.16;52.13
40982;BME280;26708;50.304;19.028;2023-03-23T05:37:36;97792.44;;;12.27;52.11
40982;BME280;26708;50.304;19.028;2023-03-23T05:39:46;97785.44;;;12.29;51.98
40982;BME280;26708;50.304;19.028;2023-03-23T05:42:11;97777.44;;;12.33;51.84
40982;BME280;26708;50.304;19.028;2023-03-23T05:44:24;97777.34;;;12.38;51.82
40982;BME280;26708;50.304;19.028;2023-03-23T05:46:32;97779.84;;;12.44;51.62
40982;BME280;26708;50.304;19.028;2023-03-23T05:48:37;97784.06;;;12.51;51.53
40982;BME280;26708;50.304;19.028;2023-03-23T05:50:48;97763.22;;;12.43;51.48
40982;BME280;26708;50.304;19.028;2023-03-23T05:52:56;97782.06;;;12.60;51.15
40982;BME280;26708;50.304;19.028;2023-03-23T05:55:06;97779.31;;;12.65;51.15
40982;BME280;26708;50.304;19.028;2023-03-23T05:57:14;97764.69;;;12.55;50.80
40982;BME280;26708;50.304;19.028;2023-03-23T05:59:22;97774.91;;;12.67;50.82
40982;BME280;26708;50.304;19.028;2023-03-23T06:01:30;97796.38;;;12.84;50.47
40982;BME280;26708;50.304;19.028;2023-03-23T06:03:36;97780.63;;;12.84;50.45
40982;BME280;26708;50.304;19.028;2023-03-23T06:05:59;97789.31;;;12.86;50.40
40982;BME280;26708;50.304;19.028;2023-03-23T06:08:14;97786.69;;;12.86;50.40
40982;BME280;26708;50.304;19.028;2023-03-23T06:10:23;97785.69;;;12.91;50.34
40982;BME280;26708;50.304;19.028;2023-03-23T06:12:37;97793.44;;;12.96;50.33
40982;BME280;26708;50.304;19.028;2023-03-23T06:15:07;97766.56;;;12.86;50.15
40982;BME280;26708;50.304;19.028;2023-03-23T06:17:33;97776.72;;;13.00;49.74
40982;BME280;26708;50.304;19.028;2023-03-23T06:19:38;97776.50;;;13.10;49.72
40982;BME280;26708;50.304;19.028;2023-03-23T06:21:47;97743.53;;;12.96;49.79
40982;BME280;26708;50.304;19.028;2023-03-23T06:24:02;97766.78;;;13.14;49.54
40982;BME280;26708;50.304;19.028;2023-03-23T06:26:12;97785.75;;;13.25;49.32
40982;BME280;26708;50.304;19.028;2023-03-23T06:28:24;97749.38;;;13.08;49.08
40982;BME280;26708;50.304;19.028;2023-03-23T06:30:31;97784.72;;;13.30;49.16
40982;BME280;26708;50.304;19.028;2023-03-23T06:32:38;97789.84;;;13.35;48.89
40982;BME280;26708;50.304;19.028;2023-03-23T06:34:46;97779.28;;;13.38;48.99
40982;BME280;26708;50.304;19.028;2023-03-23T06:37:04;97760.22;;;13.30;48.79
40982;BME280;26708;50.304;19.028;2023-03-23T06:39:28;97788.63;;;13.48;48.61
40982;BME280;26708;50.304;19.028;2023-03-23T06:41:56;97786.81;;;13.50;48.52
40982;BME280;26708;50.304;19.028;2023-03-23T06:44:07;97784.13;;;13.53;48.26
40982;BME280;26708;50.304;19.028;2023-03-23T06:46:15;97773.59;;;13.53;48.20
40982;BME280;26708;50.304;19.028;2023-03-23T06:48:28;97776.16;;;13.54;48.20
40982;BME280;26708;50.304;19.028;2023-03-23T06:50:36;97779.66;;;13.56;48.07
40982;BME280;26708;50.304;19.028;2023-03-23T06:52:45;97785.69;;;13.60;47.96
40982;BME280;26708;50.304;19.028;2023-03-23T06:54:52;97774.50;;;13.52;47.98
40982;BME280;26708;50.304;19.028;2023-03-23T06:57:01;97792.50;;;13.67;47.67
40982;BME280;26708;50.304;19.028;2023-03-23T06:59:06;97788.97;;;13.68;47.81
40982;BME280;26708;50.304;19.028;2023-03-23T07:01:11;97778.50;;;13.65;47.55
40982;BME280;26708;50.304;19.028;2023-03-23T07:03:27;97755.09;;;13.56;47.56
40982;BME280;26708;50.304;19.028;2023-03-23T07:05:34;97772.34;;;13.66;47.30
40982;BME280;26708;50.304;19.028;2023-03-23T07:07:40;97794.69;;;13.82;47.24
40982;BME280;26708;50.304;19.028;2023-03-23T07:09:56;97780.56;;;13.86;47.03
40982;BME280;26708;50.304;19.028;2023-03-23T07:12:04;97741.63;;;13.68;46.98
40982;BME280;26708;50.304;19.028;2023-03-23T07:14:15;97782.19;;;13.90;46.72
40982;BME280;26708;50.304;19.028;2023-03-23T07:16:22;97756.44;;;13.70;46.63
40982;BME280;26708;50.304;19.028;2023-03-23T07:18:27;97776.25;;;13.83;46.74
40982;BME280;26708;50.304;19.028;2023-03-23T07:20:33;97801.28;;;13.98;46.56
40982;BME280;26708;50.304;19.028;2023-03-23T07:22:39;97792.47;;;13.99;46.32
40982;BME280;26708;50.304;19.028;2023-03-23T07:24:55;97711.47;;;13.49;46.44
40982;BME280;26708;50.304;19.028;2023-03-23T07:27:08;97766.50;;;13.87;46.36
40982;BME280;26708;50.304;19.028;2023-03-23T07:29:15;97794.09;;;14.03;46.20
40982;BME280;26708;50.304;19.028;2023-03-23T07:31:23;97790.63;;;14.02;46.43
40982;BME280;26708;50.304;19.028;2023-03-23T07:33:29;97794.91;;;14.05;46.28
40982;BME280;26708;50.304;19.028;2023-03-23T07:35:36;97796.66;;;14.06;46.29
40982;BME280;26708;50.304;19.028;2023-03-23T07:37:48;97780.47;;;13.89;46.43
40982;BME280;26708;50.304;19.028;2023-03-23T07:39:52;97807.28;;;14.01;46.54
40982;BME280;26708;50.304;19.028;2023-03-23T07:41:59;97790.97;;;13.89;46.59
40982;BME280;26708;50.304;19.028;2023-03-23T07:44:19;97805.56;;;14.00;46.55
40982;BME280;26708;50.304;19.028;2023-03-23T07:46:25;97814.34;;;14.01;46.52
40982;BME280;26708;50.304;19.028;2023-03-23T07:48:38;97812.38;;;14.09;46.78
40982;BME280;26708;50.304;19.028;2023-03-23T07:50:43;97806.97;;;14.13;46.38
40982;BME280;26708;50.304;19.028;2023-03-23T07:52:48;97806.94;;;14.15;46.10
40982;BME280;26708;50.304;19.028;2023-03-23T07:54:55;97812.84;;;14.23;46.01
40982;BME280;26708;50.304;19.028;2023-03-23T07:57:16;97780.66;;;14.13;45.79
40982;BME280;26708;50.304;19.028;2023-03-23T07:59:28;97804.53;;;14.36;45.42
40982;BME280;26708;50.304;19.028;2023-03-23T08:01:35;97800.00;;;14.41;45.56
40982;BME280;26708;50.304;19.028;2023-03-23T08:03:58;97803.19;;;14.51;45.47
40982;BME280;26708;50.304;19.028;2023-03-23T08:06:18;97792.31;;;14.63;45.14
40982;BME280;26708;50.304;19.028;2023-03-23T08:08:37;97786.00;;;14.67;44.85
40982;BME280;26708;50.304;19.028;2023-03-23T08:11:01;97800.31;;;14.87;44.49
40982;BME280;26708;50.304;19.028;2023-03-23T08:13:25;97792.94;;;14.97;44.38
40982;BME280;26708;50.304;19.028;2023-03-23T08:15:52;97794.28;;;15.11;44.17
40982;BME280;26708;50.304;19.028;2023-03-23T08:18:27;97793.25;;;15.15;43.71
40982;BME280;26708;50.304;19.028;2023-03-23T08:20:51;97799.13;;;15.23;43.84
40982;BME280;26708;50.304;19.028;2023-03-23T08:23:18;97800.53;;;15.33;43.65
40982;BME280;26708;50.304;19.028;2023-03-23T08:25:23;97791.41;;;15.43;43.32
40982;BME280;26708;50.304;19.028;2023-03-23T08:27:47;97778.06;;;15.48;43.04
40982;BME280;26708;50.304;19.028;2023-03-23T08:30:04;97751.72;;;15.46;42.69
40982;BME280;26708;50.304;19.028;2023-03-23T08:32:31;97778.72;;;15.79;42.54
40982;BME280;26708;50.304;19.028;2023-03-23T08:34:50;97775.56;;;15.94;41.93
40982;BME280;26708;50.304;19.028;2023-03-23T08:37:14;97782.03;;;16.08;41.35
40982;BME280;26708;50.304;19.028;2023-03-23T08:39:41;97733.50;;;15.89;41.68
40982;BME280;26708;50.304;19.028;2023-03-23T08:41:46;97756.44;;;16.10;41.47
40982;BME280;26708;50.304;19.028;2023-03-23T08:44:11;97752.72;;;16.16;40.78
40982;BME280;26708;50.304;19.028;2023-03-23T08:46:35;97784.81;;;16.28;40.48
40982;BME280;26708;50.304;19.028;2023-03-23T08:48:46;97790.28;;;16.23;40.54
40982;BME280;26708;50.304;19.028;2023-03-23T08:51:26;97777.38;;;16.14;40.78
40982;BME280;26708;50.304;19.028;2023-03-23T08:53:44;97781.69;;;16.17;40.85
40982;BME280;26708;50.304;19.028;2023-03-23T08:56:15;97781.59;;;16.20;40.77
40982;BME280;26708;50.304;19.028;2023-03-23T08:58:45;97781.25;;;16.29;40.90
40982;BME280;26708;50.304;19.028;2023-03-23T09:01:01;97758.22;;;16.32;40.88
40982;BME280;26708;50.304;19.028;2023-03-23T09:03:19;97778.47;;;16.55;40.60
40982;BME280;26708;50.304;19.028;2023-03-23T09:05:51;97778.78;;;16.69;40.34
40982;BME280;26708;50.304;19.028;2023-03-23T09:08:01;97775.22;;;16.70;40.07
40982;BME280;26708;50.304;19.028;2023-03-23T09:10:07;97775.56;;;16.84;39.64
40982;BME280;26708;50.304;19.028;2023-03-23T09:12:14;97781.41;;;16.92;39.83
40982;BME280;26708;50.304;19.028;2023-03-23T09:14:18;97776.72;;;16.98;39.69
40982;BME280;26708;50.304;19.028;2023-03-23T09:16:23;97763.38;;;17.01;39.16
40982;BME280;26708;50.304;19.028;2023-03-23T09:18:28;97773.09;;;17.01;39.42
40982;BME280;26708;50.304;19.028;2023-03-23T09:20:33;97729.31;;;16.72;38.94
40982;BME280;26708;50.304;19.028;2023-03-23T09:22:44;97657.94;;;16.29;38.93
40982;BME280;26708;50.304;19.028;2023-03-23T09:24:51;97779.06;;;17.06;39.07
40982;BME280;26708;50.304;19.028;2023-03-23T09:26:59;97749.53;;;16.95;38.90
40982;BME280;26708;50.304;19.028;2023-03-23T09:29:04;97765.84;;;17.06;38.53
40982;BME280;26708;50.304;19.028;2023-03-23T09:31:10;97765.91;;;17.04;38.68
40982;BME280;26708;50.304;19.028;2023-03-23T09:33:15;97775.50;;;17.07;38.85
40982;BME280;26708;50.304;19.028;2023-03-23T09:35:20;97731.31;;;16.89;38.91
40982;BME280;26708;50.304;19.028;2023-03-23T09:37:26;97769.88;;;17.14;38.57
40982;BME280;26708;50.304;19.028;2023-03-23T09:39:33;97775.91;;;17.18;38.54
40982;BME280;26708;50.304;19.028;2023-03-23T09:41:53;97784.84;;;17.15;38.33
40982;BME280;26708;50.304;19.028;2023-03-23T09:44:23;97760.56;;;17.06;38.57
40982;BME280;26708;50.304;19.028;2023-03-23T09:46:53;97774.19;;;17.17;38.71
40982;BME280;26708;50.304;19.028;2023-03-23T09:49:10;97768.59;;;17.24;38.44
40982;BME280;26708;50.304;19.028;2023-03-23T09:51:39;97775.59;;;17.25;38.53
40982;BME280;26708;50.304;19.028;2023-03-23T09:53:51;97773.59;;;17.30;38.49
40982;BME280;26708;50.304;19.028;2023-03-23T09:56:01;97721.72;;;17.06;38.41
40982;BME280;26708;50.304;19.028;2023-03-23T09:58:16;97743.31;;;17.37;38.28
40982;BME280;26708;50.304;19.028;2023-03-23T10:00:34;97747.00;;;17.53;37.44
40982;BME280;26708;50.304;19.028;2023-03-23T10:02:46;97759.09;;;17.60;37.79
40982;BME280;26708;50.304;19.028;2023-03-23T10:05:22;97756.97;;;17.68;37.74
40982;BME280;26708;50.304;19.028;2023-03-23T10:07:33;97695.69;;;17.37;37.29
40982;BME280;26708;50.304;19.028;2023-03-23T10:09:38;97753.91;;;17.77;37.07
40982;BME280;26708;50.304;19.028;2023-03-23T10:11:56;97679.59;;;17.42;36.67
40982;BME280;26708;50.304;19.028;2023-03-23T10:14:26;97740.56;;;17.80;36.99
40982;BME280;26708;50.304;19.028;2023-03-23T10:16:42;97737.66;;;17.86;36.89
40982;BME280;26708;50.304;19.028;2023-03-23T10:19:04;97664.34;;;17.48;36.71
40982;BME280;26708;50.304;19.028;2023-03-23T10:21:18;97731.00;;;17.96;36.22
40982;BME280;26708;50.304;19.028;2023-03-23T10:23:52;97731.66;;;18.01;35.55
40982;BME280;26708;50.304;19.028;2023-03-23T10:26:08;97714.03;;;18.00;35.08
40982;BME280;26708;50.304;19.028;2023-03-23T10:28:35;97728.44;;;18.13;35.16
40982;BME280;26708;50.304;19.028;2023-03-23T10:30:45;97727.38;;;18.17;34.67
40982;BME280;26708;50.304;19.028;2023-03-23T10:32:58;97726.16;;;18.24;34.37
40982;BME280;26708;50.304;19.028;2023-03-23T10:35:12;97668.44;;;17.94;34.67
40982;BME280;26708;50.304;19.028;2023-03-23T10:37:24;97717.84;;;18.32;33.54
40982;BME280;26708;50.304;19.028;2023-03-23T10:39:44;97723.84;;;18.37;33.35
40982;BME280;26708;50.304;19.028;2023-03-23T10:41:53;97653.91;;;18.02;33.28
40982;BME280;26708;50.304;19.028;2023-03-23T10:44:16;97712.38;;;18.35;33.40
40982;BME280;26708;50.304;19.028;2023-03-23T10:46:31;97722.16;;;18.34;33.60
40982;BME280;26708;50.304;19.028;2023-03-23T10:48:44;97712.91;;;18.24;33.72
40982;BME280;26708;50.304;19.028;2023-03-23T10:50:54;97714.63;;;18.25;33.63
40982;BME280;26708;50.304;19.028;2023-03-23T10:53:14;97737.53;;;18.26;33.92
40982;BME280;26708;50.304;19.028;2023-03-23T10:55:23;97728.22;;;18.18;33.83
40982;BME280;26708;50.304;19.028;2023-03-23T10:57:31;97729.59;;;18.08;33.96
40982;BME280;26708;50.304;19.028;2023-03-23T10:59:40;97731.03;;;18.15;34.00
40982;BME280;26708;50.304;19.028;2023-03-23T11:01:50;97740.13;;;18.09;34.38
40982;BME280;26708;50.304;19.028;2023-03-23T11:03:57;97747.25;;;18.07;34.67
40982;BME280;26708;50.304;19.028;2023-03-23T11:06:07;97744.25;;;17.96;34.64
40982;BME280;26708;50.304;19.028;2023-03-23T11:08:15;97764.22;;;18.03;34.84
40982;BME280;26708;50.304;19.028;2023-03-23T11:10:25;97754.56;;;18.02;34.82
40982;BME280;26708;50.304;19.028;2023-03-23T11:12:33;97742.66;;;17.92;34.77
40982;BME280;26708;50.304;19.028;2023-03-23T11:14:41;97758.63;;;17.91;34.80
40982;BME280;26708;50.304;19.028;2023-03-23T11:16:51;97706.34;;;17.56;35.02
40982;BME280;26708;50.304;19.028;2023-03-23T11:19:11;97757.38;;;17.79;35.31
40982;BME280;26708;50.304;19.028;2023-03-23T11:21:20;97748.81;;;17.73;35.29
40982;BME280;26708;50.304;19.028;2023-03-23T11:23:32;97752.56;;;17.69;35.48
40982;BME280;26708;50.304;19.028;2023-03-23T11:25:55;97754.31;;;17.68;35.79
40982;BME280;26708;50.304;19.028;2023-03-23T11:28:04;97733.00;;;17.51;35.50
40982;BME280;26708;50.304;19.028;2023-03-23T11:30:21;97757.13;;;17.65;35.68
40982;BME280;26708;50.304;19.028;2023-03-23T11:32:30;97751.78;;;17.67;35.57
40982;BME280;26708;50.304;19.028;2023-03-23T11:34:40;97747.41;;;17.66;35.70